Time;durP1;ratioP1;P1;durP2;ratioP2;P2;SDS_P1;SDS_P2;PMS_P1;PMS_P2;Temp;Humidity;BMP_temperature;BMP_pressure;BME280_temperature;BME280_humidity;BME280_pressure;Samples;Min_cycle;Max_cycle;Signal;HPM_P1;HPM_P2
2022/10/03 00:00:10;;;;;;;7.78;4.43;;;;;;;7.89;100.00;101697.38;697915;28;1202;-64
2022/10/03 00:00:33;;;;;;;7.35;4.35;;;;;;;7.81;100.00;101698.06;697039;28;1233;-66
2022/10/03 00:01:17;;;;;;;6.95;4.22;;;;;;;7.65;100.00;101707.22;697440;28;4372;-66
2022/10/03 00:01:46;;;;;;;7.93;4.43;;;;;;;7.61;100.00;101700.19;693767;28;2783;-65
2022/10/03 00:02:29;;;;;;;7.57;4.20;;;;;;;7.57;100.00;101703.56;696553;28;2716;-65
2022/10/03 00:03:25;;;;;;;5.93;4.30;;;;;;;7.50;100.00;101701.66;697879;28;1387;-68
2022/10/03 00:04:11;;;;;;;7.78;4.40;;;;;;;7.38;100.00;101703.97;696625;28;4456;-67
2022/10/03 00:05:01;;;;;;;7.10;4.50;;;;;;;7.37;100.00;101716.09;698292;28;1345;-65
2022/10/03 00:05:50;;;;;;;7.00;4.30;;;;;;;7.32;100.00;101707.28;697847;28;1234;-66
2022/10/03 00:06:40;;;;;;;8.32;4.70;;;;;;;7.45;100.00;101717.16;697036;28;1393;-65
2022/10/03 00:07:35;;;;;;;9.63;4.85;;;;;;;7.63;100.00;101719.34;696015;28;4997;-65
2022/10/03 00:08:05;;;;;;;7.28;4.70;;;;;;;7.61;100.00;101718.41;697357;28;2750;-65
2022/10/03 00:08:31;;;;;;;9.27;4.50;;;;;;;7.61;100.00;101720.16;696342;28;1175;-66
2022/10/03 00:09:12;;;;;;;8.18;4.85;;;;;;;7.60;100.00;101715.78;697092;28;1408;-65
2022/10/03 00:09:41;;;;;;;7.80;4.95;;;;;;;7.49;100.00;101715.50;698803;28;2176;-66
2022/10/03 00:10:16;;;;;;;7.45;4.45;;;;;;;7.53;100.00;101721.69;699292;28;4989;-65
2022/10/03 00:10:49;;;;;;;7.63;4.53;;;;;;;7.63;100.00;101723.69;700041;28;3092;-65
2022/10/03 00:11:27;;;;;;;6.55;4.50;;;;;;;7.64;100.00;101715.00;697449;28;1409;-65
2022/10/03 00:12:13;;;;;;;8.07;4.38;;;;;;;7.49;100.00;101716.41;695091;28;1917;-66
2022/10/03 00:12:58;;;;;;;7.28;4.55;;;;;;;7.58;100.00;101720.06;697869;28;1329;-65
2022/10/03 00:13:27;;;;;;;6.68;4.38;;;;;;;7.70;100.00;101717.78;697121;28;5340;-65
2022/10/03 00:14:04;;;;;;;8.48;4.70;;;;;;;7.75;100.00;101721.34;697596;28;1162;-66
2022/10/03 00:14:53;;;;;;;7.05;4.43;;;;;;;7.62;100.00;101716.72;696803;28;2643;-66
2022/10/03 00:15:27;;;;;;;7.68;4.65;;;;;;;7.52;100.00;101720.81;696268;28;1533;-65
2022/10/03 00:16:16;;;;;;;6.95;4.43;;;;;;;7.63;100.00;101714.13;696074;28;4379;-65
2022/10/03 00:17:04;;;;;;;8.00;4.90;;;;;;;7.79;100.00;101714.50;697077;28;1188;-65
2022/10/03 00:17:44;;;;;;;6.43;4.20;;;;;;;7.53;100.00;101721.69;698925;28;1217;-65
2022/10/03 00:18:29;;;;;;;6.30;4.40;;;;;;;7.48;100.00;101717.25;697502;28;1396;-65
2022/10/03 00:19:14;;;;;;;9.65;4.72;;;;;;;7.60;100.00;101715.78;696944;28;4289;-65
2022/10/03 00:19:40;;;;;;;7.15;4.82;;;;;;;7.67;100.00;101720.31;696730;28;1316;-65
2022/10/03 00:20:52;;;;;;;7.82;4.80;;;;;;;7.55;100.00;101718.28;698434;28;1111;-65
2022/10/03 00:21:33;;;;;;;6.72;4.50;;;;;;;7.36;100.00;101719.53;692219;28;2853;-65
2022/10/03 00:22:33;;;;;;;7.18;4.45;;;;;;;7.50;100.00;101722.47;698510;28;4279;-68
2022/10/03 00:23:06;;;;;;;7.90;4.50;;;;;;;7.47;100.00;101727.63;694348;28;1283;-66
2022/10/03 00:23:42;;;;;;;7.70;4.43;;;;;;;7.44;100.00;101722.34;693472;28;1217;-66
2022/10/03 00:24:33;;;;;;;7.80;4.60;;;;;;;7.52;100.00;101727.72;698633;28;1233;-65
2022/10/03 00:25:17;;;;;;;7.18;4.78;;;;;;;7.47;100.00;101730.22;696581;28;4365;-66
2022/10/03 00:25:45;;;;;;;7.43;4.70;;;;;;;7.40;100.00;101730.91;697848;28;1059;-65
2022/10/03 00:26:27;;;;;;;8.00;4.47;;;;;;;7.42;100.00;101734.41;698910;28;1701;-66
2022/10/03 00:26:59;;;;;;;7.18;4.53;;;;;;;7.50;100.00;101733.78;700458;28;1453;-66
2022/10/03 00:27:34;;;;;;;7.18;4.38;;;;;;;7.47;100.00;101733.69;698531;28;1138;-66
2022/10/03 00:28:11;;;;;;;7.60;4.28;;;;;;;7.48;100.00;101738.06;696946;28;4359;-66
2022/10/03 00:28:56;;;;;;;7.28;4.80;;;;;;;7.59;100.00;101732.25;698464;28;1279;-67
2022/10/03 00:29:38;;;;;;;7.28;4.50;;;;;;;7.57;100.00;101734.78;698242;28;1429;-66
2022/10/03 00:30:01;;;;;;;7.05;4.40;;;;;;;7.56;100.00;101733.06;698969;28;1043;-66
2022/10/03 00:30:23;;;;;;;6.43;4.30;;;;;;;7.56;100.00;101734.75;698280;28;1529;-65
2022/10/03 00:30:55;;;;;;;7.60;4.47;;;;;;;7.55;100.00;101730.41;698436;28;4317;-66
2022/10/03 00:31:43;;;;;;;9.55;4.45;;;;;;;7.54;100.00;101734.72;696055;28;2559;-65
2022/10/03 00:32:35;;;;;;;7.55;4.88;;;;;;;7.58;100.00;101735.69;699268;28;1913;-66
2022/10/03 00:33:27;;;;;;;7.00;4.30;;;;;;;7.57;100.00;101733.94;698051;28;1348;-66
2022/10/03 00:34:17;;;;;;;8.65;4.68;;;;;;;7.38;100.00;101736.06;691059;28;4397;-66
2022/10/03 00:35:06;;;;;;;7.03;4.43;;;;;;;7.35;100.00;101741.19;697941;28;1649;-66
2022/10/03 00:35:55;;;;;;;8.45;4.30;;;;;;;7.49;100.00;101737.22;689523;28;1385;-66
2022/10/03 00:36:29;;;;;;;6.13;4.03;;;;;;;7.49;100.00;101738.94;688909;28;1307;-66
2022/10/03 00:37:07;;;;;;;7.22;4.55;;;;;;;7.50;100.00;101740.69;698853;28;4369;-66
2022/10/03 00:37:49;;;;;;;6.60;4.20;;;;;;;7.57;100.00;101736.53;701148;28;1225;-66
2022/10/03 00:38:21;;;;;;;9.77;4.30;;;;;;;7.63;100.00;101729.75;701598;28;1135;-66
2022/10/03 00:39:01;;;;;;;7.75;4.30;;;;;;;7.61;100.00;101735.75;701065;28;1260;-66
2022/10/03 00:40:00;;;;;;;6.60;4.10;;;;;;;7.64;100.00;101730.63;699106;28;1285;-68
2022/10/03 00:40:42;;;;;;;7.30;4.40;;;;;;;7.53;100.00;101735.56;686093;28;5076;-66
2022/10/03 00:41:31;;;;;;;7.48;4.10;;;;;;;7.43;100.00;101737.06;695850;28;1289;-66
2022/10/03 00:42:21;;;;;;;7.00;4.35;;;;;;;7.44;100.00;101733.63;695261;28;1325;-66
2022/10/03 00:43:03;;;;;;;5.88;4.20;;;;;;;7.47;100.00;101740.63;696166;28;4365;-66
2022/10/03 00:43:32;;;;;;;6.53;4.40;;;;;;;7.53;100.00;101740.75;699559;28;1221;-66
2022/10/03 00:44:29;;;;;;;8.35;4.30;;;;;;;7.56;100.00;101737.34;696658;28;1364;-66
2022/10/03 00:45:02;;;;;;;7.50;4.38;;;;;;;7.54;100.00;101733.84;698825;28;1221;-65
2022/10/03 00:45:41;;;;;;;5.70;4.00;;;;;;;7.41;100.00;101730.06;697981;28;1142;-65
2022/10/03 00:46:21;;;;;;;7.53;4.35;;;;;;;7.43;100.00;101736.19;696310;28;5024;-65
2022/10/03 00:46:52;;;;;;;6.50;4.10;;;;;;;7.50;100.00;101739.00;698273;28;1214;-66
2022/10/03 00:47:46;;;;;;;6.90;4.43;;;;;;;7.50;100.00;101739.00;697819;28;1440;-65
2022/10/03 00:48:37;;;;;;;7.47;4.03;;;;;;;7.44;100.00;101736.22;697785;28;2965;-65
2022/10/03 00:49:35;;;;;;;8.10;4.10;;;;;;;7.52;100.00;101744.22;698165;28;4711;-64
2022/10/03 00:50:23;;;;;;;6.82;4.00;;;;;;;7.43;100.00;101742.25;695599;28;1306;-66
2022/10/03 00:51:07;;;;;;;6.68;3.95;;;;;;;7.42;100.00;101745.72;694428;28;2807;-66
2022/10/03 00:51:56;;;;;;;6.30;4.10;;;;;;;7.45;100.00;101740.59;694178;28;1238;-65
2022/10/03 00:52:53;;;;;;;6.82;3.90;;;;;;;7.41;100.00;101753.50;693802;28;4758;-66
2022/10/03 00:53:26;;;;;;;5.85;3.85;;;;;;;7.24;100.00;101742.63;696842;28;1249;-65
2022/10/03 00:53:58;;;;;;;5.25;3.95;;;;;;;7.38;100.00;101749.09;696703;28;1154;-66
2022/10/03 00:54:27;;;;;;;8.00;4.45;;;;;;;7.49;100.00;101744.13;693916;28;2725;-65
2022/10/03 00:54:51;;;;;;;7.00;4.14;;;;;;;7.52;100.00;101743.31;693052;28;4421;-65
2022/10/03 00:55:21;;;;;;;6.18;3.97;;;;;;;7.54;100.00;101750.34;694652;28;1282;-66
2022/10/03 00:56:03;;;;;;;6.18;4.18;;;;;;;7.48;100.00;101747.59;694148;28;1262;-66
2022/10/03 00:56:44;;;;;;;6.57;4.05;;;;;;;7.43;100.00;101750.06;695947;28;1155;-65
2022/10/03 00:57:17;;;;;;;6.88;4.10;;;;;;;7.30;100.00;101748.88;694592;28;1923;-66
2022/10/03 00:57:56;;;;;;;5.72;3.90;;;;;;;7.37;100.00;101754.25;695902;28;4488;-66
2022/10/03 00:58:47;;;;;;;6.88;3.92;;;;;;;7.39;100.00;101749.94;697816;28;1313;-65
2022/10/03 00:59:52;;;;;;;7.10;4.20;;;;;;;7.32;100.00;101748.91;697854;28;1202;-66
2022/10/03 01:00:27;;;;;;;6.25;3.83;;;;;;;7.48;100.00;101753.66;694805;28;1305;-65
2022/10/03 01:00:51;;;;;;;7.13;4.22;;;;;;;7.62;100.00;101758.34;693592;28;4620;-66
2022/10/03 01:01:35;;;;;;;7.28;4.00;;;;;;;7.55;100.00;101746.91;694551;28;1365;-65
2022/10/03 01:01:55;;;;;;;6.82;4.20;;;;;;;7.43;100.00;101754.41;695012;28;1373;-66
2022/10/03 01:02:32;;;;;;;7.03;4.13;;;;;;;7.34;100.00;101747.25;695268;28;1388;-66
2022/10/03 01:03:37;;;;;;;6.25;3.70;;;;;;;7.24;100.00;101755.63;691674;28;1396;-65
2022/10/03 01:04:19;;;;;;;5.35;3.83;;;;;;;7.32;100.00;101751.50;692279;28;4770;-66
2022/10/03 01:05:17;;;;;;;6.68;3.78;;;;;;;7.28;100.00;101754.88;691050;28;4016;-65
2022/10/03 01:05:56;;;;;;;9.43;4.07;;;;;;;7.11;100.00;101757.91;692514;28;1599;-65
2022/10/03 01:06:27;;;;;;;6.25;3.90;;;;;;;7.05;100.00;101759.44;692540;28;1560;-66
2022/10/03 01:06:56;;;;;;;7.03;3.88;;;;;;;7.00;100.00;101759.34;694297;28;5256;-65
2022/10/03 01:07:42;;;;;;;6.57;3.90;;;;;;;6.94;100.00;101764.38;697165;28;1603;-65
2022/10/03 01:08:09;;;;;;;6.15;3.90;;;;;;;7.00;100.00;101761.94;698763;28;1317;-66
2022/10/03 01:09:05;;;;;;;6.18;4.10;;;;;;;6.98;100.00;101759.28;699896;28;1170;-66
2022/10/03 01:09:54;;;;;;;6.32;3.88;;;;;;;6.98;100.00;101759.28;697983;28;1169;-65
2022/10/03 01:10:40;;;;;;;6.75;4.00;;;;;;;7.06;100.00;101763.81;683561;28;5039;-66
2022/10/03 01:11:26;;;;;;;7.43;3.90;;;;;;;7.21;100.00;101760.75;697559;28;1266;-66
2022/10/03 01:11:59;;;;;;;5.63;3.65;;;;;;;7.19;100.00;101760.72;698066;28;1967;-66
2022/10/03 01:12:53;;;;;;;6.00;3.60;;;;;;;7.16;100.00;101760.66;694846;28;2705;-66
2022/10/03 01:13:38;;;;;;;5.82;3.90;;;;;;;7.07;100.00;101769.06;697713;28;5046;-66
2022/10/03 01:14:23;;;;;;;6.22;3.67;;;;;;;6.97;100.00;101767.06;697944;28;1245;-65
2022/10/03 01:14:51;;;;;;;6.20;3.63;;;;;;;6.93;100.00;101766.06;694739;28;1163;-65
2022/10/03 01:15:35;;;;;;;7.13;3.70;;;;;;;6.91;100.00;101766.88;696987;28;2905;-65
2022/10/03 01:16:15;;;;;;;6.93;3.90;;;;;;;6.90;100.00;101766.00;699000;28;4435;-66
2022/10/03 01:17:04;;;;;;;7.18;3.83;;;;;;;6.88;100.00;101764.19;698901;28;1567;-66
2022/10/03 01:17:37;;;;;;;6.60;4.10;;;;;;;6.92;100.00;101768.63;699207;28;1466;-65
2022/10/03 01:18:09;;;;;;;7.07;4.22;;;;;;;6.92;100.00;101769.53;700666;28;1495;-66
2022/10/03 01:18:51;;;;;;;6.60;3.85;;;;;;;6.92;100.00;101768.63;700332;28;1289;-66
2022/10/03 01:19:46;;;;;;;6.10;3.85;;;;;;;6.95;100.00;101769.63;697864;28;4929;-65
2022/10/03 01:20:31;;;;;;;5.13;3.50;;;;;;;7.03;100.00;101767.22;689051;28;1213;-66
2022/10/03 01:21:04;;;;;;;6.60;3.92;;;;;;;7.10;100.00;101766.56;697137;28;1480;-66
2022/10/03 01:21:34;;;;;;;6.50;3.83;;;;;;;7.02;100.00;101760.28;699402;28;1102;-66
2022/10/03 01:22:14;;;;;;;5.00;3.55;;;;;;;7.05;100.00;101762.03;697393;28;4311;-66
2022/10/03 01:23:16;;;;;;;4.82;3.42;;;;;;;7.07;100.00;101758.66;699186;28;1212;-65
2022/10/03 01:23:44;;;;;;;5.88;3.60;;;;;;;7.06;100.00;101761.22;695220;28;1457;-66
2022/10/03 01:24:42;;;;;;;6.25;3.60;;;;;;;7.00;100.00;101761.94;695513;28;1135;-65
2022/10/03 01:25:36;;;;;;;6.25;3.72;;;;;;;6.88;100.00;101759.00;696717;28;4732;-65
2022/10/03 01:26:14;;;;;;;5.32;3.50;;;;;;;6.82;100.00;101757.09;697884;28;1463;-65
2022/10/03 01:26:51;;;;;;;5.53;3.67;;;;;;;6.73;100.00;101759.44;697424;28;1309;-66
2022/10/03 01:27:17;;;;;;;7.13;3.70;;;;;;;6.68;100.00;101755.84;697203;28;2722;-66
2022/10/03 01:30:42;;;;;;;6.05;3.50;;;;;;;6.72;100.00;101766.34;697131;28;1209;-65
2022/10/03 01:31:09;;;;;;;5.68;3.70;;;;;;;6.77;100.00;101758.69;696814;28;6012;-64
2022/10/03 01:31:39;;;;;;;6.40;3.90;;;;;;;6.71;100.00;101754.19;697353;28;1221;-65
2022/10/03 01:32:13;;;;;;;6.25;3.85;;;;;;;6.76;100.00;101770.81;698296;28;1921;-65
2022/10/03 01:33:01;;;;;;;5.50;3.88;;;;;;;6.84;100.00;101762.34;697919;28;1514;-66
2022/10/03 01:33:34;;;;;;;6.60;3.63;;;;;;;6.84;100.00;101758.03;698273;28;1214;-65
2022/10/03 01:34:11;;;;;;;6.38;3.55;;;;;;;6.91;100.00;101766.88;697628;28;4432;-66
2022/10/03 01:34:50;;;;;;;5.68;3.65;;;;;;;7.03;100.00;101755.94;697636;28;1233;-66
2022/10/03 01:35:24;;;;;;;5.47;3.67;;;;;;;6.96;100.00;101757.50;697758;28;1304;-65
2022/10/03 01:36:02;;;;;;;5.80;3.72;;;;;;;6.91;100.00;101759.06;697418;28;1301;-66
2022/10/03 01:36:31;;;;;;;5.05;3.50;;;;;;;6.86;100.00;101760.69;695286;28;2677;-65
2022/10/03 01:37:14;;;;;;;6.35;3.80;;;;;;;6.83;100.00;101766.66;697951;28;4331;-66
2022/10/03 01:37:34;;;;;;;6.60;3.40;;;;;;;6.80;100.00;101757.06;698172;28;1405;-65
2022/10/03 01:38:08;;;;;;;5.43;3.58;;;;;;;6.80;100.00;101764.84;693282;28;1403;-65
2022/10/03 01:38:52;;;;;;;6.15;3.47;;;;;;;6.86;100.00;101758.09;696803;28;1242;-66
2022/10/03 01:39:19;;;;;;;5.90;3.60;;;;;;;7.08;100.00;101757.81;696857;28;1354;-65
2022/10/03 01:39:55;;;;;;;5.88;3.67;;;;;;;7.08;100.00;101756.94;695893;28;4398;-66
2022/10/03 01:40:25;;;;;;;5.82;3.40;;;;;;;6.95;100.00;101756.63;699217;28;1281;-66
2022/10/03 01:41:08;;;;;;;5.60;3.38;;;;;;;6.90;100.00;101759.94;698172;28;1222;-65
2022/10/03 01:41:47;;;;;;;6.93;3.38;;;;;;;7.06;100.00;101762.13;698354;28;1257;-66
2022/10/03 01:42:13;;;;;;;6.38;3.30;;;;;;;7.01;100.00;101760.22;697905;28;1230;-65
2022/10/03 01:43:05;;;;;;;5.43;3.50;;;;;;;6.96;100.00;101765.28;697361;28;2740;-64
2022/10/03 01:44:00;;;;;;;6.05;3.40;;;;;;;6.92;100.00;101763.44;683393;28;4738;-65
2022/10/03 01:44:29;;;;;;;6.03;3.60;;;;;;;6.90;100.00;101768.59;684117;28;1371;-65
2022/10/03 01:45:12;;;;;;;5.65;3.20;;;;;;;6.88;100.00;101765.09;698854;28;1249;-65
2022/10/03 01:45:47;;;;;;;5.68;3.30;;;;;;;6.87;100.00;101768.53;698950;28;1367;-65
2022/10/03 01:46:37;;;;;;;6.40;3.33;;;;;;;6.81;100.00;101764.03;695497;28;5093;-66
2022/10/03 01:47:06;;;;;;;5.43;3.47;;;;;;;6.78;100.00;101761.34;691146;28;1452;-65
2022/10/03 01:47:50;;;;;;;5.05;3.28;;;;;;;6.95;100.00;101763.50;697406;28;1246;-66
2022/10/03 01:48:16;;;;;;;5.22;3.40;;;;;;;6.93;100.00;101766.06;697981;28;1285;-65
2022/10/03 01:49:05;;;;;;;5.15;3.30;;;;;;;6.78;100.00;101768.25;698685;28;4523;-65
2022/10/03 01:49:29;;;;;;;4.65;3.22;;;;;;;6.79;100.00;101763.09;698151;28;1236;-68
2022/10/03 01:50:22;;;;;;;5.85;3.38;;;;;;;6.87;100.00;101765.00;698208;28;1308;-65
2022/10/03 01:50:43;;;;;;;5.53;3.42;;;;;;;6.83;100.00;101771.88;691973;28;1613;-65
2022/10/03 01:51:15;;;;;;;5.57;3.40;;;;;;;6.76;100.00;101768.22;697018;28;1292;-66
2022/10/03 01:51:59;;;;;;;6.40;3.45;;;;;;;6.75;100.00;101770.75;700582;28;1269;-65
2022/10/03 01:52:31;;;;;;;4.78;3.20;;;;;;;6.94;100.00;101764.38;700440;28;4797;-65
2022/10/03 01:53:00;;;;;;;6.20;3.50;;;;;;;7.05;100.00;101768.16;699344;28;1257;-65
2022/10/03 01:53:45;;;;;;;4.88;3.33;;;;;;;6.90;100.00;101770.31;701462;28;1138;-66
2022/10/03 01:54:28;;;;;;;6.43;3.53;;;;;;;6.80;100.00;101764.84;700256;28;1368;-65
2022/10/03 01:55:13;;;;;;;4.85;3.05;;;;;;;7.09;100.00;101763.88;697165;28;4402;-65
2022/10/03 01:55:45;;;;;;;5.88;3.45;;;;;;;7.08;100.00;101759.56;695704;28;1469;-65
2022/10/03 01:56:19;;;;;;;6.95;3.38;;;;;;;6.88;100.00;101766.78;694643;28;1247;-64
2022/10/03 01:57:01;;;;;;;4.30;3.10;;;;;;;7.01;100.00;101765.44;695082;28;1243;-65
2022/10/03 01:57:28;;;;;;;4.93;3.20;;;;;;;7.16;100.00;101768.44;696595;28;1132;-66
2022/10/03 01:57:59;;;;;;;6.53;3.35;;;;;;;7.26;100.00;101765.25;697441;28;4370;-65
2022/10/03 01:58:46;;;;;;;7.13;3.22;;;;;;;7.15;100.00;101758.88;698398;28;1288;-66
2022/10/03 01:59:09;;;;;;;5.95;3.30;;;;;;;7.08;100.00;101763.03;697332;28;1241;-65
2022/10/03 01:59:45;;;;;;;5.55;3.17;;;;;;;7.06;100.00;101762.13;698642;28;1265;-65
2022/10/03 02:00:17;;;;;;;5.38;3.20;;;;;;;7.13;100.00;101760.53;698015;28;1194;-65
2022/10/03 02:00:49;;;;;;;4.82;2.90;;;;;;;7.07;100.00;101769.06;696981;28;4390;-64
2022/10/03 02:01:20;;;;;;;4.75;3.05;;;;;;;6.96;100.00;101771.38;697857;28;1229;-65
2022/10/03 02:01:47;;;;;;;4.97;3.08;;;;;;;6.89;100.00;101773.75;698201;28;1336;-65
2022/10/03 02:02:23;;;;;;;5.28;3.10;;;;;;;6.93;100.00;101771.28;700990;28;1631;-65
2022/10/03 02:02:44;;;;;;;5.45;3.00;;;;;;;6.92;100.00;101768.63;699817;28;1364;-65
2022/10/03 02:03:40;;;;;;;6.45;3.10;;;;;;;6.93;100.00;101770.41;699685;28;1214;-65
2022/10/03 02:04:16;;;;;;;5.13;3.30;;;;;;;6.91;100.00;101769.47;689141;28;4794;-65
2022/10/03 02:05:05;;;;;;;6.13;3.15;;;;;;;6.79;100.00;101773.47;690109;28;2631;-65
2022/10/03 02:05:40;;;;;;;5.22;2.95;;;;;;;6.77;100.00;101775.19;689729;28;1140;-65
2022/10/03 02:06:07;;;;;;;4.80;3.05;;;;;;;6.75;100.00;101786.34;689903;28;1264;-65
2022/10/03 02:06:36;;;;;;;4.60;2.90;;;;;;;6.67;100.00;101780.94;687345;28;1155;-65
2022/10/03 02:07:29;;;;;;;6.18;3.28;;;;;;;6.62;100.00;101783.41;695987;28;5824;-64
2022/10/03 02:08:01;;;;;;;5.13;3.10;;;;;;;6.63;100.00;101781.66;696908;28;1416;-65
2022/10/03 02:08:33;;;;;;;6.00;3.10;;;;;;;6.58;100.00;101794.53;698092;28;1215;-64
2022/10/03 02:09:08;;;;;;;4.00;3.00;;;;;;;6.53;100.00;101787.44;699600;28;3369;-65
2022/10/03 02:09:56;;;;;;;5.10;3.30;;;;;;;6.54;100.00;101786.63;700413;28;1274;-65
2022/10/03 02:10:19;;;;;;;4.82;3.10;;;;;;;6.47;100.00;101789.00;698441;28;5029;-64
2022/10/03 02:11:01;;;;;;;5.07;2.90;;;;;;;6.40;100.00;101789.66;699317;28;1304;-65
2022/10/03 02:11:30;;;;;;;4.60;3.10;;;;;;;6.36;100.00;101787.81;697473;28;1203;-65
2022/10/03 02:11:53;;;;;;;5.40;3.10;;;;;;;6.35;100.00;101790.38;694321;28;1972;-65
2022/10/03 02:12:30;;;;;;;4.78;3.08;;;;;;;6.37;100.00;101792.19;695482;28;1573;-65
2022/10/03 02:13:12;;;;;;;5.70;3.20;;;;;;;6.34;100.00;101792.09;695246;28;4305;-65
2022/10/03 02:14:05;;;;;;;5.53;3.03;;;;;;;6.37;100.00;101789.59;698520;28;1278;-64
2022/10/03 02:14:39;;;;;;;4.45;3.00;;;;;;;6.43;100.00;101789.75;698099;28;2711;-65
2022/10/03 02:15:19;;;;;;;5.25;3.20;;;;;;;6.33;100.00;101798.13;698435;28;1186;-65
2022/10/03 02:16:09;;;;;;;5.30;3.10;;;;;;;6.30;100.00;101795.44;697414;28;4334;-65
2022/10/03 02:16:35;;;;;;;5.20;3.17;;;;;;;6.42;100.00;101794.91;688532;28;1413;-65
2022/10/03 02:17:41;;;;;;;5.40;3.00;;;;;;;6.45;100.00;101798.50;699275;28;1465;-65
2022/10/03 02:18:16;;;;;;;5.47;2.67;;;;;;;6.40;100.00;101805.25;697829;28;1206;-65
2022/10/03 02:19:14;;;;;;;5.63;3.20;;;;;;;6.50;100.00;101797.75;697256;28;4600;-65
2022/10/03 02:19:50;;;;;;;4.38;3.05;;;;;;;6.57;100.00;101802.28;698742;28;1554;-65
2022/10/03 02:20:40;;;;;;;5.00;2.80;;;;;;;6.48;100.00;101805.50;698614;28;1411;-65
2022/10/03 02:21:07;;;;;;;5.57;3.08;;;;;;;6.44;100.00;101801.91;685386;28;2958;-65
2022/10/03 02:21:31;;;;;;;5.75;3.00;;;;;;;6.47;100.00;101808.94;700311;28;1170;-65
2022/10/03 02:21:57;;;;;;;5.85;3.13;;;;;;;6.51;100.00;101805.59;695174;28;4705;-65
2022/10/03 02:22:36;;;;;;;4.78;2.90;;;;;;;6.48;100.00;101811.56;695475;28;1295;-65
2022/10/03 02:22:58;;;;;;;4.43;3.00;;;;;;;6.42;100.00;101807.91;696736;28;1272;-65
2022/10/03 02:23:30;;;;;;;4.03;2.90;;;;;;;6.32;100.00;101804.13;695221;28;1425;-65
2022/10/03 02:24:14;;;;;;;5.30;2.95;;;;;;;6.25;100.00;101809.97;697552;28;1111;-65
2022/10/03 02:24:54;;;;;;;5.90;3.08;;;;;;;6.23;100.00;101807.34;684144;28;3091;-65
2022/10/03 02:25:25;;;;;;;7.88;3.05;;;;;;;6.21;100.00;101802.94;685514;28;4850;-65
2022/10/03 02:26:29;;;;;;;4.75;2.80;;;;;;;6.21;100.00;101801.19;699044;28;1321;-66
2022/10/03 02:27:35;;;;;;;4.55;2.90;;;;;;;6.12;100.00;101809.59;699992;28;1355;-66
2022/10/03 02:28:21;;;;;;;3.88;2.67;;;;;;;6.33;100.00;101795.53;699577;28;4361;-66
2022/10/03 02:28:54;;;;;;;6.28;2.90;;;;;;;6.29;100.00;101797.13;699833;28;1110;-65
2022/10/03 02:29:29;;;;;;;4.50;2.50;;;;;;;6.18;100.00;101798.50;694204;28;1263;-65
2022/10/03 02:30:12;;;;;;;5.05;3.30;;;;;;;6.17;100.00;101795.88;694251;28;2733;-66
2022/10/03 02:30:46;;;;;;;4.10;2.80;;;;;;;6.10;100.00;101794.78;693025;28;8288;-65
2022/10/03 02:31:37;;;;;;;5.40;2.90;;;;;;;6.07;100.00;101794.69;692833;28;8084;-64
2022/10/03 02:32:13;;;;;;;4.53;2.80;;;;;;;6.02;100.00;101791.94;697392;28;2001;-65
2022/10/03 02:32:51;;;;;;;5.40;3.00;;;;;;;6.10;100.00;101789.59;697649;28;2854;-65
2022/10/03 02:33:35;;;;;;;4.70;2.90;;;;;;;6.15;100.00;101795.81;699393;28;1271;-66
2022/10/03 02:34:15;;;;;;;5.03;2.83;;;;;;;6.13;100.00;101802.66;697640;28;4592;-66
2022/10/03 02:35:07;;;;;;;5.90;3.13;;;;;;;6.17;100.00;101796.75;698516;28;1301;-66
2022/10/03 02:35:34;;;;;;;4.78;2.97;;;;;;;6.14;100.00;101797.53;698436;28;1348;-66
2022/10/03 02:36:13;;;;;;;4.63;2.95;;;;;;;6.16;100.00;101801.88;698844;28;1297;-66
2022/10/03 02:36:42;;;;;;;7.00;2.85;;;;;;;6.17;100.00;101795.88;697579;28;1248;-65
2022/10/03 02:37:45;;;;;;;5.68;2.95;;;;;;;6.17;100.00;101799.34;694167;28;4552;-65
2022/10/03 02:38:26;;;;;;;4.85;2.85;;;;;;;6.25;100.00;101799.59;686759;28;1564;-66
2022/10/03 02:39:21;;;;;;;5.60;2.70;;;;;;;6.22;100.00;101796.91;687910;28;1224;-65
2022/10/03 02:39:53;;;;;;;4.45;2.80;;;;;;;6.15;100.00;101803.63;691899;28;2868;-65
2022/10/03 02:40:50;;;;;;;4.88;2.80;;;;;;;6.18;100.00;101792.44;694889;28;4870;-66
2022/10/03 02:41:38;;;;;;;4.95;3.00;;;;;;;6.11;100.00;101801.75;697933;28;1074;-65
2022/10/03 02:42:23;;;;;;;4.32;2.90;;;;;;;6.19;100.00;101804.56;698793;28;1571;-65
2022/10/03 02:43:07;;;;;;;4.97;2.88;;;;;;;6.35;100.00;101795.56;698498;28;1214;-66
2022/10/03 02:43:46;;;;;;;4.95;2.80;;;;;;;6.35;100.00;101792.97;694950;28;4667;-66
2022/10/03 02:44:25;;;;;;;4.70;3.00;;;;;;;6.38;100.00;101800.84;695345;28;1261;-65
2022/10/03 02:45:26;;;;;;;4.28;2.72;;;;;;;6.38;100.00;101798.25;698779;28;1175;-66
2022/10/03 02:46:01;;;;;;;4.47;2.85;;;;;;;6.44;100.00;101798.44;698170;28;1044;-66
2022/10/03 02:46:43;;;;;;;4.72;2.80;;;;;;;6.42;100.00;101795.78;697471;28;4903;-65
2022/10/03 02:47:31;;;;;;;5.57;2.92;;;;;;;6.40;100.00;101802.66;699366;28;1131;-66
2022/10/03 02:48:03;;;;;;;5.22;2.92;;;;;;;6.38;100.00;101791.31;697799;28;2803;-66
2022/10/03 02:48:51;;;;;;;5.32;3.03;;;;;;;6.33;100.00;101794.63;697841;28;1273;-66
2022/10/03 02:49:27;;;;;;;5.13;2.88;;;;;;;6.25;100.00;101792.66;696493;28;4786;-66
2022/10/03 02:50:25;;;;;;;4.60;2.80;;;;;;;6.24;100.00;101797.81;698824;28;1285;-66
2022/10/03 02:51:03;;;;;;;4.88;2.83;;;;;;;6.22;100.00;101796.91;698466;28;1361;-65
2022/10/03 02:51:43;;;;;;;4.10;2.90;;;;;;;6.17;100.00;101793.28;698090;28;968;-66
2022/10/03 02:52:37;;;;;;;4.43;2.67;;;;;;;6.12;100.00;101799.19;698692;28;4413;-65
2022/10/03 02:53:12;;;;;;;5.38;2.85;;;;;;;6.22;100.00;101807.28;698964;28;1031;-65
2022/10/03 02:53:47;;;;;;;5.30;2.90;;;;;;;6.33;100.00;101800.72;697360;28;1154;-66
2022/10/03 02:54:48;;;;;;;3.75;2.70;;;;;;;6.33;100.00;101800.72;697136;28;1278;-66
2022/10/03 02:55:46;;;;;;;6.22;2.67;;;;;;;6.34;100.00;101804.19;697181;28;4818;-65
2022/10/03 02:56:46;;;;;;;4.05;2.60;;;;;;;6.28;100.00;101808.34;698565;28;1084;-66
2022/10/03 02:57:06;;;;;;;5.72;2.92;;;;;;;6.25;100.00;101805.66;689485;28;1369;-65
2022/10/03 02:57:48;;;;;;;6.00;2.80;;;;;;;6.24;100.00;101803.00;695277;28;1510;-65
2022/10/03 02:58:26;;;;;;;4.85;2.63;;;;;;;6.24;100.00;101810.81;698006;28;4694;-65
2022/10/03 02:58:50;;;;;;;4.78;2.90;;;;;;;6.25;100.00;101803.06;698945;28;1123;-66
2022/10/03 02:59:19;;;;;;;4.63;2.90;;;;;;;6.22;100.00;101808.16;698834;28;1234;-66
2022/10/03 02:59:49;;;;;;;5.53;3.00;;;;;;;6.28;100.00;101807.47;697662;28;1497;-66
2022/10/03 03:00:16;;;;;;;4.97;2.80;;;;;;;6.27;100.00;101803.09;697374;28;1309;-66
2022/10/03 03:00:44;;;;;;;4.43;2.90;;;;;;;6.29;100.00;101807.50;697278;28;2967;-66
2022/10/03 03:01:41;;;;;;;4.22;2.60;;;;;;;6.30;100.00;101804.09;697139;28;4424;-65
2022/10/03 03:02:29;;;;;;;4.43;2.60;;;;;;;6.23;100.00;101806.44;697565;28;1161;-66
2022/10/03 03:03:04;;;;;;;6.18;2.88;;;;;;;6.18;100.00;101802.84;697884;28;1301;-65
2022/10/03 03:03:54;;;;;;;4.72;2.83;;;;;;;6.13;100.00;101800.97;696568;28;2713;-66
2022/10/03 03:04:52;;;;;;;4.47;2.70;;;;;;;6.05;100.00;101805.03;687619;28;4736;-66
2022/10/03 03:05:24;;;;;;;4.93;2.70;;;;;;;5.98;100.00;101808.25;691166;28;1226;-66
2022/10/03 03:05:53;;;;;;;5.90;2.88;;;;;;;5.89;100.00;101805.34;694711;28;1274;-66
2022/10/03 03:06:38;;;;;;;4.47;2.88;;;;;;;5.82;100.00;101800.78;694866;28;2905;-66
2022/10/03 03:07:23;;;;;;;4.93;3.00;;;;;;;5.94;100.00;101804.66;696463;28;4299;-65
2022/10/03 03:08:23;;;;;;;6.18;3.00;;;;;;;5.88;100.00;101809.63;697045;28;1022;-65
2022/10/03 03:09:08;;;;;;;6.38;2.90;;;;;;;5.94;100.00;101811.53;687685;28;1394;-66
2022/10/03 03:09:31;;;;;;;5.85;2.80;;;;;;;5.90;100.00;101810.56;693856;28;1243;-65
2022/10/03 03:09:58;;;;;;;4.60;2.80;;;;;;;5.90;100.00;101807.09;698245;28;4397;-66
2022/10/03 03:10:44;;;;;;;4.00;2.80;;;;;;;5.84;100.00;101806.88;697340;28;2611;-65
2022/10/03 03:11:41;;;;;;;4.57;2.70;;;;;;;5.85;100.00;101816.44;697194;28;1007;-66
2022/10/03 03:12:39;;;;;;;6.13;2.97;;;;;;;5.90;100.00;101815.75;698081;28;1989;-65
2022/10/03 03:13:45;;;;;;;5.65;3.00;;;;;;;5.92;100.00;101814.09;697670;28;4558;-66
2022/10/03 03:14:28;;;;;;;4.53;2.85;;;;;;;5.99;100.00;101815.22;686986;28;1430;-65